Time;durP1;ratioP1;P1;durP2;ratioP2;P2;SDS_P1;SDS_P2;PMS_P1;PMS_P2;Temp;Humidity;BMP_temperature;BMP_pressure;BME280_temperature;BME280_humidity;BME280_pressure;Samples;Min_cycle;Max_cycle;Signal;HPM_P1;HPM_P2
2024/02/10 00:00:40;;;;;;;7.80;5.63;;;;;;;-145.63;46.00;38815.00;5026828;28;20045;-64
2024/02/10 00:03:06;;;;;;;9.20;6.10;;;;;;;-145.63;45.55;38805.22;5022862;28;20101;-64
2024/02/10 00:05:32;;;;;;;9.05;6.30;;;;;;;-145.63;45.47;38824.78;5018043;28;20176;-64
2024/02/10 00:07:58;;;;;;;10.20;6.43;;;;;;;-145.63;45.89;38844.34;5032963;28;20029;-63
2024/02/10 00:10:25;;;;;;;8.73;6.15;;;;;;;-145.63;45.89;38813.03;5052594;28;20025;-64
2024/02/10 00:12:51;;;;;;;7.90;6.03;;;;;;;-145.63;45.83;38826.72;5037087;28;20505;-64
2024/02/10 00:15:20;;;;;;;7.53;5.85;;;;;;;-145.63;46.04;38787.63;5011386;28;20069;-65
2024/02/10 00:17:45;;;;;;;12.15;6.40;;;;;;;-145.63;45.78;38828.69;5021717;28;20064;-65
2024/02/10 00:20:15;;;;;;;10.98;6.32;;;;;;;-145.63;46.21;38815.00;5034225;28;20073;-65
2024/02/10 00:22:43;;;;;;;9.52;6.45;;;;;;;-145.63;45.64;38834.56;5017172;28;20037;-64
2024/02/10 00:25:10;;;;;;;9.00;6.40;;;;;;;-145.63;46.06;38846.28;5034873;28;20470;-64
2024/02/10 00:27:37;;;;;;;7.95;5.95;;;;;;;-145.63;46.16;38807.19;5050080;28;20036;-65
2024/02/10 00:30:05;;;;;;;8.13;6.35;;;;;;;-145.63;45.97;38815.00;5035731;28;20459;-66
2024/02/10 00:32:33;;;;;;;10.50;6.07;;;;;;;-145.63;46.00;38828.69;5036420;28;20065;-66
2024/02/10 00:34:59;;;;;;;9.40;5.95;;;;;;;-145.63;45.37;38840.44;5035877;28;20041;-64
2024/02/10 00:37:25;;;;;;;9.15;6.30;;;;;;;-145.63;45.55;38816.97;5016569;28;20021;-65
2024/02/10 00:39:51;;;;;;;10.18;5.82;;;;;;;-145.63;45.60;38824.78;5032139;28;20070;-65
2024/02/10 00:42:17;;;;;;;8.25;5.55;;;;;;;-145.63;46.04;38854.13;5025167;28;20033;-65
2024/02/10 00:44:51;;;;;;;7.47;5.72;;;;;;;-145.63;46.40;38836.50;5029101;28;20033;-64
2024/02/10 00:47:17;;;;;;;8.35;5.35;;;;;;;-145.63;45.93;38815.00;5053023;28;20037;-66
2024/02/10 00:49:43;;;;;;;8.52;5.90;;;;;;;-145.63;45.41;38840.44;5034983;28;20029;-65
2024/02/10 00:52:08;;;;;;;8.68;5.88;;;;;;;-145.63;46.04;38854.13;5035766;28;20073;-66
2024/02/10 00:54:37;;;;;;;8.18;5.60;;;;;;;-145.63;46.03;38854.13;5023002;28;20518;-64
2024/02/10 00:57:10;;;;;;;9.43;5.72;;;;;;;-145.63;45.83;38840.44;5023915;28;20383;-66
2024/02/10 00:59:44;;;;;;;10.23;6.75;;;;;;;-145.63;46.05;38832.59;5024981;28;20232;-65
2024/02/10 01:02:17;;;;;;;8.68;6.30;;;;;;;-145.63;45.47;38836.50;5033620;28;20037;-64
2024/02/10 01:04:44;;;;;;;9.70;6.53;;;;;;;-145.63;45.62;38836.50;5015789;28;20049;-65
2024/02/10 01:07:12;;;;;;;9.57;6.25;;;;;;;-145.63;45.64;38844.34;5051685;28;20120;-63
2024/02/10 01:09:38;;;;;;;7.95;6.10;;;;;;;-145.63;45.37;38836.50;5041651;28;20088;-64
2024/02/10 01:12:05;;;;;;;8.98;5.75;;;;;;;-145.63;45.45;38822.81;5035503;28;20112;-64
2024/02/10 01:14:32;;;;;;;9.30;6.18;;;;;;;-145.63;46.00;38838.47;5031173;28;20033;-65
2024/02/10 01:16:58;;;;;;;11.05;5.75;;;;;;;-145.63;45.54;38824.78;5025794;28;20483;-65
2024/02/10 01:19:28;;;;;;;8.50;5.30;;;;;;;-145.63;45.55;38840.44;5042591;28;20032;-65
2024/02/10 01:21:57;;;;;;;9.40;6.55;;;;;;;-145.63;45.55;38828.69;5040290;28;20112;-66
2024/02/10 01:24:27;;;;;;;8.18;5.63;;;;;;;-145.63;44.95;38840.44;5054522;28;20056;-67
2024/02/10 01:26:54;;;;;;;9.98;6.32;;;;;;;-145.63;45.96;38838.47;5061602;28;20029;-66
2024/02/10 01:29:20;;;;;;;8.20;5.78;;;;;;;-145.63;45.55;38844.34;5040519;28;20091;-65
2024/02/10 01:31:46;;;;;;;7.68;5.70;;;;;;;-145.63;45.36;38818.91;5025495;28;20053;-67
2024/02/10 01:34:15;;;;;;;10.52;6.22;;;;;;;-145.63;45.88;38848.25;5028949;28;20044;-66
2024/02/10 01:36:41;;;;;;;10.02;6.18;;;;;;;-145.63;45.34;38918.66;5033933;28;20467;-65
2024/02/10 01:39:06;;;;;;;9.77;6.10;;;;;;;-145.63;46.37;38815.00;5015514;28;20033;-66
2024/02/10 01:41:32;;;;;;;9.48;5.63;;;;;;;-145.63;45.71;38840.44;5048405;28;20040;-67
2024/02/10 01:43:58;;;;;;;8.25;5.88;;;;;;;-145.63;45.61;38822.81;5043508;28;20124;-68
2024/02/10 01:46:25;;;;;;;7.28;5.38;;;;;;;-145.63;45.53;38863.88;5026147;28;20048;-66
2024/02/10 01:48:55;;;;;;;8.65;5.93;;;;;;;-145.63;45.84;38838.47;5017540;28;20113;-67
2024/02/10 01:51:23;;;;;;;8.48;5.80;;;;;;;-145.63;45.40;38842.38;5034295;28;20040;-66
2024/02/10 01:53:50;;;;;;;9.45;6.20;;;;;;;-145.63;45.40;38859.97;5016294;28;20037;-65
2024/02/10 01:56:17;;;;;;;7.68;6.05;;;;;;;-145.63;45.54;38848.25;5029170;28;20030;-64
2024/02/10 01:58:47;;;;;;;10.65;6.03;;;;;;;-145.63;45.28;38848.25;5025100;28;20026;-64
2024/02/10 02:01:16;;;;;;;7.07;5.60;;;;;;;-145.63;45.01;38834.56;5025628;28;20052;-64
2024/02/10 02:03:43;;;;;;;8.27;5.28;;;;;;;-145.63;45.92;38854.13;5054340;28;20458;-65
2024/02/10 02:06:17;;;;;;;8.75;5.82;;;;;;;-145.63;45.30;38815.00;5025600;28;20026;-64
2024/02/10 02:08:52;;;;;;;10.00;5.88;;;;;;;-145.63;45.53;38820.88;5031880;28;20025;-65
2024/02/10 02:11:18;;;;;;;9.60;6.57;;;;;;;-145.63;45.33;38668.34;5048156;28;20029;-64
2024/02/10 02:13:49;;;;;;;9.68;6.28;;;;;;;-145.63;45.67;38807.19;5044891;28;20037;-65
2024/02/10 02:16:17;;;;;;;9.23;6.57;;;;;;;-145.63;46.01;38824.78;5036362;28;20037;-66
2024/02/10 02:18:43;;;;;;;9.23;6.25;;;;;;;-145.63;45.49;38824.78;5039107;28;20033;-64
2024/02/10 02:21:10;;;;;;;8.68;5.78;;;;;;;-145.63;45.60;38828.69;5041264;28;20048;-65
2024/02/10 02:23:35;;;;;;;10.95;6.25;;;;;;;-145.63;46.08;38801.31;5022738;28;20034;-64
2024/02/10 02:26:01;;;;;;;8.98;6.28;;;;;;;-145.63;46.17;38811.09;5038064;28;20049;-64
2024/02/10 02:28:27;;;;;;;11.70;6.82;;;;;;;-145.63;46.92;38805.22;5044554;28;20041;-64
2024/02/10 02:30:53;;;;;;;9.23;7.07;;;;;;;-145.63;46.27;38840.44;5028204;28;20041;-65
2024/02/10 02:33:20;;;;;;;10.52;7.25;;;;;;;-145.63;46.48;38836.50;5054368;28;20037;-66
2024/02/10 02:35:48;;;;;;;11.77;7.25;;;;;;;-145.63;45.87;38840.44;5053848;28;20036;-65
2024/02/10 02:38:13;;;;;;;13.98;8.02;;;;;;;-145.63;46.27;38793.50;5053633;28;20378;-64
2024/02/10 02:40:41;;;;;;;9.15;6.55;;;;;;;-145.63;46.06;38824.78;5053261;28;20040;-66
2024/02/10 02:43:09;;;;;;;12.60;7.68;;;;;;;-145.63;46.08;38805.22;5048888;28;20030;-64
2024/02/10 02:45:35;;;;;;;10.18;7.28;;;;;;;-145.63;45.91;38809.13;5033575;28;20030;-66
2024/02/10 02:48:01;;;;;;;9.45;6.25;;;;;;;-145.63;46.00;38809.13;5033502;28;20026;-66
2024/02/10 02:50:28;;;;;;;9.95;6.80;;;;;;;-145.63;46.68;38824.78;5031274;28;20386;-66
2024/02/10 02:52:57;;;;;;;14.90;8.07;;;;;;;-145.63;46.74;38824.78;5044588;28;20144;-65
2024/02/10 02:55:24;;;;;;;10.35;7.65;;;;;;;-145.63;46.52;38793.50;5046216;28;20038;-65
2024/02/10 02:57:51;;;;;;;10.93;7.40;;;;;;;-145.63;46.31;38805.22;5035701;28;20030;-65
2024/02/10 03:00:18;;;;;;;10.52;7.20;;;;;;;-145.63;46.27;38797.41;5053564;28;20037;-64
2024/02/10 03:02:44;;;;;;;11.57;7.53;;;;;;;-145.63;46.48;38777.84;5035998;28;20467;-65
2024/02/10 03:05:11;;;;;;;12.50;8.40;;;;;;;-145.63;47.16;38822.81;5028212;28;20072;-65
2024/02/10 03:07:42;;;;;;;13.13;8.40;;;;;;;-145.63;46.44;38840.44;5021770;28;20026;-66
2024/02/10 03:10:09;;;;;;;13.98;8.38;;;;;;;-145.63;46.21;38828.69;5029318;28;20105;-66
2024/02/10 03:12:34;;;;;;;11.80;8.70;;;;;;;-145.63;46.62;38820.88;5014200;28;20040;-65
2024/02/10 03:15:00;;;;;;;11.90;8.32;;;;;;;-145.63;46.52;38807.19;5032238;28;20037;-67
2024/02/10 03:17:30;;;;;;;10.02;7.82;;;;;;;-145.63;47.20;38785.66;5023921;28;20025;-65
2024/02/10 03:20:00;;;;;;;12.15;8.00;;;;;;;-145.63;46.45;38801.31;5032680;28;20083;-66
2024/02/10 03:22:26;;;;;;;15.20;8.88;;;;;;;-145.63;46.58;38768.06;5027597;28;20137;-66
2024/02/10 03:24:55;;;;;;;13.82;9.52;;;;;;;-145.63;46.52;38811.09;5015395;28;20029;-66
2024/02/10 03:27:21;;;;;;;11.98;7.95;;;;;;;-145.63;46.90;38816.97;5033217;28;20034;-66
2024/02/10 03:29:48;;;;;;;15.23;7.63;;;;;;;-145.63;46.88;38801.31;5016025;28;20034;-67
2024/02/10 03:32:14;;;;;;;11.27;8.02;;;;;;;-145.63;46.69;38834.56;5038376;28;20060;-65
2024/02/10 03:34:40;;;;;;;13.65;7.45;;;;;;;-145.63;46.17;38815.00;5043772;28;20374;-65
2024/02/10 03:37:06;;;;;;;14.27;8.65;;;;;;;-145.63;46.17;38815.00;5029861;28;20034;-65
2024/02/10 03:39:32;;;;;;;13.25;8.68;;;;;;;-145.63;46.31;38779.81;5013717;28;20509;-64
2024/02/10 03:41:58;;;;;;;13.32;8.38;;;;;;;-145.63;46.61;38797.41;5032073;28;20037;-65
2024/02/10 03:44:24;;;;;;;13.18;8.82;;;;;;;-145.63;46.14;38779.81;5018879;28;20391;-64
2024/02/10 03:46:54;;;;;;;13.82;9.35;;;;;;;-145.63;46.02;38787.63;5028713;28;20034;-66
2024/02/10 03:49:20;;;;;;;13.30;8.52;;;;;;;-145.63;45.96;38793.50;5018532;28;20106;-65
2024/02/10 03:51:46;;;;;;;13.90;8.75;;;;;;;-145.63;45.74;38822.81;5033696;28;20360;-67
2024/02/10 03:54:12;;;;;;;11.48;7.90;;;;;;;-145.63;45.96;38809.13;5036753;28;20131;-65
2024/02/10 03:56:46;;;;;;;13.38;8.82;;;;;;;-145.63;45.95;38781.75;5037490;28;20028;-65
2024/02/10 03:59:13;;;;;;;15.52;9.60;;;;;;;-145.63;46.77;38840.44;5036818;28;20056;-65
2024/02/10 04:01:42;;;;;;;14.90;8.98;;;;;;;-145.63;45.72;38805.22;5028874;28;20077;-63
2024/02/10 04:04:08;;;;;;;13.18;9.02;;;;;;;-145.63;46.73;38840.44;5020589;28;20056;-63
2024/02/10 04:06:34;;;;;;;14.73;9.07;;;;;;;-145.63;46.40;38764.16;5036864;28;20056;-65
2024/02/10 04:09:01;;;;;;;14.25;9.00;;;;;;;-145.63;46.17;38844.34;5017871;28;20033;-65
2024/02/10 04:11:27;;;;;;;15.95;9.75;;;;;;;-145.63;45.96;38844.34;5030183;28;20029;-65
2024/02/10 04:13:54;;;;;;;16.50;9.35;;;;;;;-145.63;46.36;38799.34;5046075;28;20035;-66
2024/02/10 04:16:20;;;;;;;20.38;9.32;;;;;;;-145.63;46.27;38822.81;5049621;28;20040;-65
2024/02/10 04:18:46;;;;;;;13.40;9.45;;;;;;;-145.63;45.77;38811.09;5035337;28;20064;-68
2024/02/10 04:21:13;;;;;;;12.68;8.77;;;;;;;-145.63;45.80;38785.66;5041704;28;20033;-66
2024/02/10 04:23:39;;;;;;;13.60;9.10;;;;;;;-145.63;45.77;38809.13;5040515;28;20095;-65
2024/02/10 04:26:05;;;;;;;14.32;9.43;;;;;;;-145.63;46.35;38844.34;5032518;28;20021;-67
2024/02/10 04:28:31;;;;;;;13.70;8.52;;;;;;;-145.63;46.54;38789.59;5036294;28;20032;-67
2024/02/10 04:30:57;;;;;;;15.27;9.05;;;;;;;-145.63;46.55;38805.22;5036271;28;20060;-65
2024/02/10 04:33:23;;;;;;;16.50;9.23;;;;;;;-145.63;46.24;38813.03;5036577;28;20501;-66
2024/02/10 04:35:50;;;;;;;12.95;8.65;;;;;;;-145.63;46.58;38809.13;5051095;28;20050;-69
2024/02/10 04:38:16;;;;;;;15.15;9.68;;;;;;;-145.63;46.25;38813.03;5036475;28;20040;-66
2024/02/10 04:40:42;;;;;;;14.40;9.13;;;;;;;-145.63;45.85;38773.94;5042531;28;20493;-66
2024/02/10 04:43:08;;;;;;;13.60;9.10;;;;;;;-145.63;46.24;38799.34;5041526;28;20037;-68
2024/02/10 04:45:35;;;;;;;12.98;8.32;;;;;;;-145.63;45.99;38805.22;5058331;28;20032;-66
2024/02/10 04:48:03;;;;;;;15.32;8.70;;;;;;;-145.63;46.65;38781.75;5055937;28;20036;-66
2024/02/10 04:50:29;;;;;;;13.38;8.75;;;;;;;-145.63;46.52;38781.75;5044581;28;20076;-66
2024/02/10 04:52:56;;;;;;;12.90;8.52;;;;;;;-145.63;46.50;38779.81;5036100;28;20033;-65
2024/02/10 04:55:23;;;;;;;11.05;8.88;;;;;;;-145.63;46.62;38783.72;5035797;28;20030;-65
2024/02/10 04:57:50;;;;;;;13.38;8.73;;;;;;;-145.63;46.35;38799.34;5036394;28;20104;-65
2024/02/10 05:00:20;;;;;;;14.27;8.38;;;;;;;-145.63;46.56;38795.44;5035932;28;20042;-65
2024/02/10 05:02:47;;;;;;;14.65;8.65;;;;;;;-145.63;46.99;38813.03;5034730;28;20034;-65
2024/02/10 05:05:15;;;;;;;11.10;7.82;;;;;;;-145.63;46.58;38803.28;5035386;28;20478;-65
2024/02/10 05:07:42;;;;;;;11.32;7.75;;;;;;;-145.63;46.00;38766.13;5035986;28;20033;-65
2024/02/10 05:10:15;;;;;;;14.95;9.02;;;;;;;-145.63;46.31;38758.28;5032566;28;20030;-66
2024/02/10 05:12:48;;;;;;;12.48;8.15;;;;;;;-145.63;46.48;38762.22;5030579;28;20686;-67
2024/02/10 05:15:18;;;;;;;12.32;8.40;;;;;;;-145.63;46.66;38758.28;5015404;28;20032;-66
2024/02/10 05:17:51;;;;;;;11.75;8.23;;;;;;;-145.63;46.43;38744.59;5032112;28;20151;-66
2024/02/10 05:20:23;;;;;;;12.57;8.32;;;;;;;-145.63;46.40;38756.34;5035615;28;20051;-66
2024/02/10 05:22:51;;;;;;;11.40;7.90;;;;;;;-145.63;46.33;38809.13;5036063;28;20033;-66
2024/02/10 05:25:19;;;;;;;11.52;7.80;;;;;;;-145.63;46.22;38734.81;5030995;28;20029;-68
2024/02/10 05:27:48;;;;;;;13.32;8.50;;;;;;;-145.63;46.24;38775.91;5030315;28;20045;-67
2024/02/10 05:30:20;;;;;;;12.68;8.18;;;;;;;-145.63;46.87;38734.81;5015415;28;20395;-68
2024/02/10 05:32:52;;;;;;;12.18;8.65;;;;;;;-145.63;46.31;38730.91;5031926;28;20046;-67
2024/02/10 05:35:20;;;;;;;11.48;7.38;;;;;;;-145.63;46.27;38748.50;5034889;28;20072;-68
2024/02/10 05:37:49;;;;;;;12.20;8.80;;;;;;;-145.63;46.23;38740.69;5035313;28;20125;-66
2024/02/10 05:40:15;;;;;;;11.85;8.27;;;;;;;-145.63;46.21;38728.97;5063092;28;20034;-67
2024/02/10 05:42:46;;;;;;;13.52;9.18;;;;;;;-145.63;46.38;38738.75;5027955;28;20497;-67
2024/02/10 05:45:16;;;;;;;11.52;7.85;;;;;;;-145.63;46.58;38740.69;5033899;28;20037;-68
2024/02/10 05:47:41;;;;;;;12.20;7.80;;;;;;;-145.63;46.25;38725.06;5035099;28;20025;-67
2024/02/10 05:50:18;;;;;;;11.88;7.63;;;;;;;-145.63;45.90;38758.28;5033729;28;20540;-66
2024/02/10 05:52:45;;;;;;;10.95;8.02;;;;;;;-145.63;45.85;38746.56;5039462;28;20494;-65
2024/02/10 05:55:30;;;;;;;11.82;8.43;;;;;;;-145.63;46.20;38728.97;5034864;28;20552;-66
2024/02/10 05:58:01;;;;;;;12.40;7.90;;;;;;;-145.63;46.17;38744.59;5047422;28;20029;-65
2024/02/10 06:00:27;;;;;;;;;;;;;;;-145.63;45.86;38766.13;5031667;28;20044;-66
2024/02/10 06:02:53;;;;;;;11.05;7.93;;;;;;;-145.63;46.06;38742.66;5026940;28;19913;-67
2024/02/10 06:05:19;;;;;;;11.30;7.55;;;;;;;-145.63;45.92;38734.81;5023314;28;20038;-66
2024/02/10 06:07:48;;;;;;;11.50;8.02;;;;;;;-145.63;45.52;38752.44;5026550;28;20034;-66
2024/02/10 06:10:15;;;;;;;11.70;7.50;;;;;;;-145.63;45.17;38752.44;5017556;28;20049;-65
2024/02/10 06:12:49;;;;;;;13.02;7.82;;;;;;;-145.63;45.49;38748.50;5032783;28;20029;-66
2024/02/10 06:15:17;;;;;;;12.38;7.47;;;;;;;-145.63;45.22;38684.00;5030999;28;20033;-66
2024/02/10 06:17:54;;;;;;;12.02;7.50;;;;;;;-145.63;45.04;38754.38;5033176;28;20480;-66
2024/02/10 06:20:22;;;;;;;11.88;8.18;;;;;;;-145.63;45.64;38766.13;5033785;28;20076;-66
2024/02/10 06:22:54;;;;;;;14.02;8.10;;;;;;;-145.63;45.62;38764.16;5032119;28;20103;-66
2024/02/10 06:25:27;;;;;;;11.18;8.13;;;;;;;-145.63;46.05;38754.38;5033755;28;20033;-66
2024/02/10 06:27:59;;;;;;;13.23;8.07;;;;;;;-145.63;45.64;38732.88;5025587;28;20061;-66
2024/02/10 06:30:30;;;;;;;16.15;8.05;;;;;;;-145.63;46.24;38707.44;5018511;28;20045;-66
2024/02/10 06:32:57;;;;;;;11.25;7.88;;;;;;;-145.63;46.00;38734.81;5029819;28;20145;-66
2024/02/10 06:35:23;;;;;;;11.85;8.38;;;;;;;-145.63;45.66;38738.75;5024239;28;20084;-66
2024/02/10 06:37:49;;;;;;;12.20;7.70;;;;;;;-145.63;46.16;38627.28;5036503;28;20025;-67
2024/02/10 06:40:16;;;;;;;12.90;8.15;;;;;;;-145.63;46.33;38699.63;5030073;28;20030;-67
2024/02/10 06:42:46;;;;;;;12.18;8.20;;;;;;;-145.63;45.83;38736.78;5031715;28;20029;-65
2024/02/10 06:45:14;;;;;;;12.75;8.00;;;;;;;-145.63;45.55;38461.06;5029014;28;20100;-67
2024/02/10 06:47:44;;;;;;;13.90;7.90;;;;;;;-145.63;45.37;38766.13;5027672;28;20029;-67
2024/02/10 06:50:14;;;;;;;13.20;7.35;;;;;;;-145.63;45.46;38732.88;5028029;28;20063;-68
2024/02/10 06:52:44;;;;;;;12.70;8.05;;;;;;;-145.63;45.24;38750.47;5032310;28;20083;-66
2024/02/10 06:55:13;;;;;;;11.30;7.40;;;;;;;-145.63;45.09;38738.75;5033252;28;20116;-66
2024/02/10 06:57:43;;;;;;;13.48;9.10;;;;;;;-145.63;44.21;38748.50;5033440;28;20033;-67
2024/02/10 07:00:13;;;;;;;12.10;8.45;;;;;;;-145.63;44.32;38781.75;5033173;28;20040;-67
2024/02/10 07:02:45;;;;;;;14.45;8.23;;;;;;;-145.63;44.43;38752.44;5030497;28;20060;-68
2024/02/10 07:05:12;;;;;;;11.07;7.78;;;;;;;-145.63;44.51;38758.28;5030472;28;20060;-66
2024/02/10 07:07:41;;;;;;;13.05;8.32;;;;;;;-145.63;45.15;38779.81;5031475;28;20080;-68
2024/02/10 07:10:15;;;;;;;12.98;7.97;;;;;;;-145.63;44.99;38760.25;5031710;28;20029;-66
2024/02/10 07:12:42;;;;;;;13.93;8.55;;;;;;;-145.63;44.98;38762.22;5025800;28;20044;-67
2024/02/10 07:15:14;;;;;;;11.77;8.60;;;;;;;-145.63;44.81;38768.06;5048683;28;20136;-66
2024/02/10 07:17:43;;;;;;;14.13;9.40;;;;;;;-145.63;44.58;38762.22;5032743;28;20084;-66
2024/02/10 07:20:20;;;;;;;15.43;9.55;;;;;;;-145.63;44.87;38762.22;5020079;28;20029;-67
2024/02/10 07:22:49;;;;;;;13.32;9.02;;;;;;;-145.63;44.30;38756.34;5026163;28;20038;-66
2024/02/10 07:25:16;;;;;;;13.90;9.65;;;;;;;-145.63;44.41;38746.56;5029302;28;20048;-65
2024/02/10 07:27:46;;;;;;;14.35;9.40;;;;;;;-145.63;44.82;38723.09;5024339;28;20025;-67
2024/02/10 07:30:13;;;;;;;19.80;9.95;;;;;;;-145.63;44.62;38621.41;5016697;28;20053;-67
2024/02/10 07:32:39;;;;;;;18.05;10.07;;;;;;;-145.63;43.87;38631.19;5024966;28;20052;-66
2024/02/10 07:35:06;;;;;;;15.05;9.57;;;;;;;-145.63;42.67;38554.94;5041489;28;20409;-66
2024/02/10 07:37:32;;;;;;;16.70;10.35;;;;;;;-145.63;42.49;38464.97;5035904;28;20115;-66
2024/02/10 07:39:59;;;;;;;16.23;9.93;;;;;;;-145.63;41.71;38554.94;5032402;28;20035;-68
2024/02/10 07:42:26;;;;;;;13.90;9.35;;;;;;;-145.63;40.45;38623.38;5027999;28;20033;-67
2024/02/10 07:44:55;;;;;;;15.02;9.02;;;;;;;-145.63;39.95;38566.66;5029749;28;20061;-66
2024/02/10 07:47:22;;;;;;;17.65;10.15;;;;;;;-145.63;39.93;38666.38;5041118;28;20044;-67
2024/02/10 07:49:52;;;;;;;77.57;40.08;;;;;;;-145.63;39.75;38623.38;5033245;28;20032;-65
2024/02/10 07:52:21;;;;;;;18.27;10.05;;;;;;;-145.63;38.69;38597.94;5032486;28;20479;-66
2024/02/10 07:54:49;;;;;;;17.33;9.55;;;;;;;-145.63;39.14;38619.47;5032392;28;20053;-68
2024/02/10 07:57:19;;;;;;;16.98;9.63;;;;;;;-145.63;38.79;38617.50;5031529;28;20430;-65
2024/02/10 07:59:50;;;;;;;13.77;9.07;;;;;;;-145.63;39.08;38597.94;5033049;28;20033;-66
2024/02/10 08:02:25;;;;;;;15.45;9.65;;;;;;;-145.63;39.52;38609.69;5042115;28;20128;-67
2024/02/10 08:04:54;;;;;;;16.58;10.20;;;;;;;-145.63;39.26;38605.78;5032821;28;20201;-66
2024/02/10 08:07:27;;;;;;;15.80;9.77;;;;;;;-145.63;39.13;38795.44;5031868;28;20034;-65
2024/02/10 08:09:53;;;;;;;16.27;9.82;;;;;;;-145.63;38.94;38809.13;5030595;28;20383;-68
2024/02/10 08:12:23;;;;;;;13.25;9.48;;;;;;;-145.63;38.66;38670.28;5026944;28;20059;-67
2024/02/10 08:14:50;;;;;;;18.00;10.30;;;;;;;-145.63;38.61;38852.16;5032422;28;20041;-67
2024/02/10 08:17:17;;;;;;;19.60;9.73;;;;;;;-145.63;38.12;38566.66;5025323;28;20038;-67
2024/02/10 08:19:43;;;;;;;14.07;9.48;;;;;;;-145.63;38.01;38660.53;5038952;28;20498;-67
2024/02/10 08:22:09;;;;;;;17.40;9.23;;;;;;;-145.63;38.43;38644.88;5037208;28;20034;-66
2024/02/10 08:24:38;;;;;;;15.93;9.98;;;;;;;-145.63;37.60;38642.91;5028674;28;20095;-69
2024/02/10 08:27:07;;;;;;;14.27;9.18;;;;;;;-145.63;37.08;38721.13;5020144;28;20066;-66
2024/02/10 08:29:33;;;;;;;15.80;9.73;;;;;;;-145.63;36.63;38781.75;5039193;28;20052;-67
2024/02/10 08:32:03;;;;;;;14.65;9.25;;;;;;;-145.63;36.10;38813.03;5040965;28;20045;-65
2024/02/10 08:34:35;;;;;;;17.42;9.93;;;;;;;-145.63;36.54;38852.16;5040931;28;20040;-67
2024/02/10 08:37:04;;;;;;;15.43;9.63;;;;;;;-145.63;36.40;38830.66;5042556;28;20114;-67
2024/02/10 08:39:31;;;;;;;14.13;9.15;;;;;;;-145.63;37.12;38793.50;5047267;28;20040;-68
2024/02/10 08:41:58;;;;;;;15.00;9.32;;;;;;;-145.63;37.99;38756.34;5044762;28;20037;-68
2024/02/10 08:44:28;;;;;;;14.65;9.57;;;;;;;-145.63;38.82;38824.78;5024506;28;20087;-67
2024/02/10 08:46:53;;;;;;;14.38;9.70;;;;;;;-145.63;39.94;38764.16;5046849;28;20057;-68
2024/02/10 08:49:19;;;;;;;16.40;10.13;;;;;;;-145.63;39.66;38818.91;5037298;28;20042;-66
2024/02/10 08:51:49;;;;;;;16.75;10.48;;;;;;;-145.63;40.26;38777.84;5036036;28;20359;-66
2024/02/10 08:54:16;;;;;;;16.27;9.27;;;;;;;-145.63;39.88;38799.34;5032642;28;20112;-66
2024/02/10 08:56:43;;;;;;;14.85;9.38;;;;;;;-145.63;39.60;38783.72;5025308;28;20045;-66
2024/02/10 08:59:12;;;;;;;16.65;9.82;;;;;;;-145.63;40.27;38732.88;5030091;28;20029;-67
2024/02/10 09:01:42;;;;;;;17.35;10.50;;;;;;;-145.63;39.01;38777.84;5029076;28;20025;-68
2024/02/10 09:04:11;;;;;;;15.02;10.52;;;;;;;-145.63;38.65;38750.47;5035805;28;20029;-67
2024/02/10 09:06:37;;;;;;;14.93;9.80;;;;;;;-145.63;39.62;38771.97;5035698;28;20117;-65
2024/02/10 09:09:10;;;;;;;15.40;10.00;;;;;;;-145.63;38.88;38811.09;5031488;28;20564;-65
2024/02/10 09:11:41;;;;;;;16.17;9.80;;;;;;;-145.63;39.67;38770.03;5029910;28;20042;-66
2024/02/10 09:14:07;;;;;;;14.93;9.65;;;;;;;-145.63;38.20;38517.78;5037505;28;20033;-65
2024/02/10 09:16:33;;;;;;;13.55;9.30;;;;;;;-145.63;39.62;38773.94;5034270;28;20443;-66
2024/02/10 09:18:59;;;;;;;14.55;9.18;;;;;;;-145.63;38.47;38766.13;5032590;28;20033;-67
2024/02/10 09:21:25;;;;;;;14.45;10.00;;;;;;;-145.63;38.41;38805.22;5029587;28;20120;-66
2024/02/10 09:23:53;;;;;;;15.20;9.93;;;;;;;-145.63;38.08;38779.81;5034819;28;20551;-66
2024/02/10 09:26:20;;;;;;;16.33;10.13;;;;;;;-145.63;38.18;38783.72;5035303;28;20113;-67
2024/02/10 09:28:46;;;;;;;14.90;10.10;;;;;;;-145.63;37.19;38779.81;5031802;28;20398;-66
2024/02/10 09:31:15;;;;;;;15.68;9.88;;;;;;;-145.63;37.44;38764.16;5033763;28;20088;-66
2024/02/10 09:33:43;;;;;;;15.50;9.82;;;;;;;-145.63;36.92;38803.28;5032746;28;20034;-67
2024/02/10 09:36:12;;;;;;;16.17;10.50;;;;;;;-145.63;37.26;38828.69;5022257;28;20053;-65
2024/02/10 09:38:42;;;;;;;18.63;10.63;;;;;;;-145.63;37.12;38803.28;5027708;28;20037;-66
2024/02/10 09:41:09;;;;;;;14.00;9.27;;;;;;;-145.63;36.61;38820.88;5027607;28;20041;-65
2024/02/10 09:43:39;;;;;;;14.52;9.48;;;;;;;-145.63;37.12;38840.44;5029486;28;20091;-65
2024/02/10 09:46:06;;;;;;;14.53;9.67;;;;;;;-145.63;37.58;38867.81;5014789;28;20421;-66
2024/02/10 09:48:40;;;;;;;14.00;10.40;;;;;;;-145.63;36.80;38859.97;5030584;28;20038;-67
2024/02/10 09:51:07;;;;;;;17.33;10.48;;;;;;;-145.63;38.55;38834.56;5019769;28;20065;-66
2024/02/10 09:53:33;;;;;;;15.70;10.25;;;;;;;-145.63;38.51;38867.81;5021523;28;20034;-65
2024/02/10 09:55:59;;;;;;;16.13;10.82;;;;;;;-145.63;39.06;38846.28;5028314;28;20088;-65
2024/02/10 09:58:31;;;;;;;16.45;10.80;;;;;;;-145.63;39.78;38815.00;5021093;28;20041;-66
2024/02/10 10:01:01;;;;;;;16.50;10.82;;;;;;;-145.63;39.96;38842.38;5019093;28;20033;-65
2024/02/10 10:03:27;;;;;;;18.42;11.68;;;;;;;-145.63;40.26;38834.56;5022584;28;20113;-68
2024/02/10 10:05:56;;;;;;;18.08;11.00;;;;;;;-145.63;40.89;38816.97;5048976;28;20034;-66
2024/02/10 10:08:34;;;;;;;17.00;11.35;;;;;;;-145.63;41.96;38840.44;5027689;28;20031;-65
2024/02/10 10:11:11;;;;;;;17.67;11.88;;;;;;;-145.63;41.73;38846.28;5032122;28;20037;-63
2024/02/10 10:13:40;;;;;;;18.02;11.50;;;;;;;-145.63;40.68;38844.34;5022393;28;20052;-67
2024/02/10 10:16:10;;;;;;;17.20;11.50;;;;;;;-145.63;41.03;38799.34;5023674;28;20038;-65
2024/02/10 10:18:36;;;;;;;17.35;10.70;;;;;;;-145.63;41.90;38775.91;5021256;28;20037;-67
2024/02/10 10:21:05;;;;;;;19.92;11.77;;;;;;;-145.63;41.84;38816.97;5024082;28;20041;-66
2024/02/10 10:23:33;;;;;;;20.90;12.13;;;;;;;-145.63;42.31;38840.44;5021252;28;20029;-63
2024/02/10 10:25:59;;;;;;;19.13;11.90;;;;;;;-145.63;41.23;38840.44;5020145;28;20030;-64
2024/02/10 10:28:25;;;;;;;20.90;12.98;;;;;;;-145.63;41.04;38828.69;5024122;28;20048;-65
2024/02/10 10:30:51;;;;;;;17.65;11.32;;;;;;;-145.63;41.36;38818.91;5035100;28;20370;-66
2024/02/10 10:33:20;;;;;;;17.55;11.20;;;;;;;-145.63;41.16;38805.22;5035408;28;20109;-65
2024/02/10 10:35:48;;;;;;;18.48;12.15;;;;;;;-145.63;41.33;38822.81;5034283;28;20083;-65
2024/02/10 10:38:19;;;;;;;18.98;11.75;;;;;;;-145.63;41.41;38809.13;5025800;28;20104;-64
2024/02/10 10:40:48;;;;;;;25.13;12.82;;;;;;;-145.63;41.79;38842.38;5033625;28;20496;-65
2024/02/10 10:43:17;;;;;;;21.83;11.95;;;;;;;-145.63;40.73;38850.19;5033443;28;20029;-65
2024/02/10 10:45:45;;;;;;;19.63;11.43;;;;;;;-145.63;40.45;38854.13;5033633;28;20048;-65
2024/02/10 10:48:10;;;;;;;20.15;11.48;;;;;;;-145.63;40.69;38852.16;5033602;28;20025;-63
2024/02/10 10:50:36;;;;;;;19.48;12.65;;;;;;;-145.63;41.06;38906.91;5025274;28;20367;-65
2024/02/10 10:53:06;;;;;;;21.27;12.43;;;;;;;-145.63;41.10;38859.97;5033182;28;20112;-66
2024/02/10 10:55:55;;;;;;;21.60;11.40;;;;;;;-145.63;40.02;38873.66;5033423;28;20040;-65
2024/02/10 10:58:25;;;;;;;21.30;12.25;;;;;;;-145.63;40.33;38852.16;5033104;28;20071;-65
2024/02/10 11:00:53;;;;;;;20.60;12.30;;;;;;;-145.63;40.17;38805.22;5032693;28;20086;-65
2024/02/10 11:03:19;;;;;;;16.85;10.77;;;;;;;-145.63;40.99;38850.19;5033343;28;20179;-64
2024/02/10 11:05:51;;;;;;;20.67;12.00;;;;;;;-145.63;40.88;38828.69;5033365;28;20120;-65
2024/02/10 11:08:28;;;;;;;16.73;11.50;;;;;;;-145.63;41.64;38820.88;5023916;28;20104;-64
2024/02/10 11:11:01;;;;;;;21.85;12.43;;;;;;;-145.63;41.62;38885.41;5013499;28;20037;-65
2024/02/10 11:13:29;;;;;;;21.27;12.80;;;;;;;-145.63;41.83;38859.97;5016176;28;20041;-64